Time;durP1;ratioP1;P1;durP2;ratioP2;P2;SDS_P1;SDS_P2;PMS_P1;PMS_P2;Temp;Humidity;BMP_temperature;BMP_pressure;BME280_temperature;BME280_humidity;BME280_pressure;Samples;Min_cycle;Max_cycle;Signal;HPM_P1;HPM_P2
2022/08/08 00:01:05;;;;;;;;;;;;;;;;;;5143330;27;19961;-85
2022/08/08 00:03:31;;;;;;;;;;;;;;;;;;5145094;27;19977;-85
2022/08/08 00:05:57;;;;;;;;;;;;;;;;;;5138439;27;19976;-86
2022/08/08 00:08:23;;;;;;;;;;;;;;;;;;5149456;27;20304;-88
2022/08/08 00:10:49;;;;;;;;;;;;;;;;;;5146305;27;20330;-87
2022/08/08 00:13:15;;;;;;;;;;;;;;;;;;5150490;27;19923;-88
2022/08/08 00:15:41;;;;;;;;;;;;;;;;;;5143543;27;19973;-88
2022/08/08 00:18:07;;;;;;;;;;;;;;;;;;5148876;27;19939;-86
2022/08/08 00:20:33;;;;;;;;;;;;;;;;;;5148647;27;19962;-87
2022/08/08 00:22:59;;;;;;;;;;;;;;;;;;5130410;27;19923;-87
2022/08/08 00:25:25;;;;;;;;;;;;;;;;;;5130834;27;19971;-85
2022/08/08 00:27:51;;;;;;;;;;;;;;;;;;5139777;27;19923;-87
2022/08/08 00:30:17;;;;;;;;;;;;;;;;;;5144088;27;19932;-89
2022/08/08 00:32:43;;;;;;;;;;;;;;;;;;5140852;27;19923;-88
2022/08/08 00:35:17;;;;;;;;;;;;;;;;;;5143082;27;19923;-86
2022/08/08 00:37:43;;;;;;;;;;;;;;;;;;5135433;27;20389;-84
2022/08/08 00:40:09;;;;;;;;;;;;;;;;;;5150727;27;19930;-86
2022/08/08 00:42:35;;;;;;;;;;;;;;;;;;5148756;27;20389;-87
2022/08/08 00:45:01;;;;;;;;;;;;;;;;;;5144088;27;20365;-88
2022/08/08 00:47:27;;;;;;;;;;;;;;;;;;5152383;27;20309;-81
2022/08/08 00:49:53;;;;;;;;;;;;;;;;;;5147058;27;20039;-87
2022/08/08 00:52:19;;;;;;;;;;;;;;;;;;5149088;27;19923;-88
2022/08/08 00:54:45;;;;;;;;;;;;;;;;;;5120065;27;19966;-89
2022/08/08 00:57:10;;;;;;;;;;;;;;;;;;5146379;27;19989;-84
2022/08/08 00:59:36;;;;;;;;;;;;;;;;;;5126961;27;19976;-88
2022/08/08 01:02:02;;;;;;;;;;;;;;;;;;5147903;27;19976;-87
2022/08/08 01:04:28;;;;;;;;;;;;;;;;;;5130894;27;19923;-87
2022/08/08 01:06:54;;;;;;;;;;;;;;;;;;5129609;27;19926;-83
2022/08/08 01:09:20;;;;;;;;;;;;;;;;;;5118640;27;19924;-87
2022/08/08 01:11:46;;;;;;;;;;;;;;;;;;5127585;27;19975;-89
2022/08/08 01:14:12;;;;;;;;;;;;;;;;;;5151150;27;19924;-87
2022/08/08 01:16:38;;;;;;;;;;;;;;;;;;5136938;27;19923;-88
2022/08/08 01:19:04;;;;;;;;;;;;;;;;;;5151799;27;19931;-87
2022/08/08 01:21:30;;;;;;;;;;;;;;;;;;5152784;27;20373;-86
2022/08/08 01:23:56;;;;;;;;;;;;;;;;;;5149406;27;19930;-88
2022/08/08 01:26:22;;;;;;;;;;;;;;;;;;5145558;27;19931;-88
2022/08/08 01:28:48;;;;;;;;;;;;;;;;;;5157910;27;20010;-90
2022/08/08 01:31:14;;;;;;;;;;;;;;;;;;5147728;27;19924;-85
2022/08/08 01:33:40;;;;;;;;;;;;;;;;;;5153187;27;20305;-86
2022/08/08 01:36:06;;;;;;;;;;;;;;;;;;5160187;27;19927;-88
2022/08/08 01:38:32;;;;;;;;;;;;;;;;;;5155503;27;19982;-83
2022/08/08 01:40:58;;;;;;;;;;;;;;;;;;5151280;27;19931;-88
2022/08/08 01:43:24;;;;;;;;;;;;;;;;;;5157083;27;19923;-86
2022/08/08 01:45:49;;;;;;;;;;;;;;;;;;5155696;27;19923;-88
2022/08/08 01:48:16;;;;;;;;;;;;;;;;;;5161950;27;19922;-89
2022/08/08 01:50:41;;;;;;;;;;;;;;;;;;5150491;27;19977;-87
2022/08/08 01:53:07;;;;;;;;;;;;;;;;;;5138921;27;19926;-89
2022/08/08 01:55:33;;;;;;;;;;;;;;;;;;5130809;27;19934;-90
2022/08/08 01:57:59;;;;;;;;;;;;;;;;;;5150523;27;19927;-89
2022/08/08 02:00:25;;;;;;;;;;;;;;;;;;5152614;27;20018;-89
2022/08/08 02:02:51;;;;;;;;;;;;;;;;;;5146244;27;19927;-82
2022/08/08 02:05:17;;;;;;;;;;;;;;;;;;5146719;27;19927;-88
2022/08/08 02:07:43;;;;;;;;;;;;;;;;;;5136502;27;19923;-85
2022/08/08 02:10:10;;;;;;;;;;;;;;;;;;5155151;27;19969;-88
2022/08/08 02:12:36;;;;;;;;;;;;;;;;;;5145586;27;20281;-88
2022/08/08 02:15:03;;;;;;;;;;;;;;;;;;5154142;27;19923;-89
2022/08/08 02:17:29;;;;;;;;;;;;;;;;;;5151708;27;20018;-89
2022/08/08 02:19:56;;;;;;;;;;;;;;;;;;5140160;27;20018;-89
2022/08/08 02:22:31;;;;;;;;;;;;;;;;;;5141808;27;20150;-82
2022/08/08 02:24:57;;;;;;;;;;;;;;;;;;5139188;27;20431;-87
2022/08/08 02:27:23;;;;;;;;;;;;;;;;;;5136397;27;19927;-88
2022/08/08 02:29:50;;;;;;;;;;;;;;;;;;5152953;27;19923;-82
2022/08/08 02:32:16;;;;;;;;;;;;;;;;;;5143586;27;19923;-88
2022/08/08 02:34:42;;;;;;;;;;;;;;;;;;5142969;27;19926;-89
2022/08/08 02:37:08;;;;;;;;;;;;;;;;;;5135383;27;20175;-89
2022/08/08 02:39:34;;;;;;;;;;;;;;;;;;5142054;27;19923;-88
2022/08/08 02:42:03;;;;;;;;;;;;;;;;;;5151681;27;20258;-88
2022/08/08 02:44:29;;;;;;;;;;;;;;;;;;5135419;27;19923;-89
2022/08/08 02:46:55;;;;;;;;;;;;;;;;;;5146320;27;19931;-86
2022/08/08 02:49:21;;;;;;;;;;;;;;;;;;5117143;27;19969;-86
2022/08/08 02:51:47;;;;;;;;;;;;;;;;;;5152412;27;19927;-87
2022/08/08 02:54:13;;;;;;;;;;;;;;;;;;5126822;27;19928;-87
2022/08/08 02:56:39;;;;;;;;;;;;;;;;;;5134663;27;19929;-87
2022/08/08 02:59:05;;;;;;;;;;;;;;;;;;5149204;27;20022;-88
2022/08/08 03:01:31;;;;;;;;;;;;;;;;;;5136805;27;19927;-86
2022/08/08 03:03:57;;;;;;;;;;;;;;;;;;5147070;27;19942;-85
2022/08/08 03:06:24;;;;;;;;;;;;;;;;;;5152636;27;19923;-86
2022/08/08 03:08:50;;;;;;;;;;;;;;;;;;5146854;27;19968;-88
2022/08/08 03:11:16;;;;;;;;;;;;;;;;;;5126159;27;19927;-87
2022/08/08 03:13:42;;;;;;;;;;;;;;;;;;5115181;27;19935;-87
2022/08/08 03:16:07;;;;;;;;;;;;;;;;;;5145164;27;20009;-86
2022/08/08 03:18:33;;;;;;;;;;;;;;;;;;5130163;27;19946;-87
2022/08/08 03:21:00;;;;;;;;;;;;;;;;;;5153551;27;19923;-81
2022/08/08 03:23:26;;;;;;;;;;;;;;;;;;5153475;27;20386;-85
2022/08/08 03:25:53;;;;;;;;;;;;;;;;;;5129040;27;19923;-87
2022/08/08 03:28:20;;;;;;;;;;;;;;;;;;5140064;27;19930;-89
2022/08/08 03:30:46;;;;;;;;;;;;;;;;;;5131891;27;19930;-87
2022/08/08 03:33:18;;;;;;;;;;;;;;;;;;5143463;27;19923;-87
2022/08/08 03:35:44;;;;;;;;;;;;;;;;;;5132695;27;19923;-87
2022/08/08 03:38:10;;;;;;;;;;;;;;;;;;5122349;27;19946;-86
2022/08/08 03:40:36;;;;;;;;;;;;;;;;;;5118496;27;19923;-86
2022/08/08 03:43:02;;;;;;;;;;;;;;;;;;5152474;27;19966;-86
2022/08/08 03:45:28;;;;;;;;;;;;;;;;;;5120632;27;19927;-86
2022/08/08 03:47:54;;;;;;;;;;;;;;;;;;5116141;27;19924;-86
2022/08/08 03:50:21;;;;;;;;;;;;;;;;;;5130260;27;19919;-87
2022/08/08 03:52:47;;;;;;;;;;;;;;;;;;5135712;27;20394;-87
2022/08/08 03:55:12;;;;;;;;;;;;;;;;;;5148457;27;20035;-87
2022/08/08 03:57:38;;;;;;;;;;;;;;;;;;5134457;27;19927;-87
2022/08/08 04:00:04;;;;;;;;;;;;;;;;;;5143610;27;19927;-88
2022/08/08 04:02:30;;;;;;;;;;;;;;;;;;5141652;27;19923;-86
2022/08/08 04:04:56;;;;;;;;;;;;;;;;;;5132574;27;19930;-85
2022/08/08 04:07:23;;;;;;;;;;;;;;;;;;5132234;27;19965;-88
2022/08/08 04:09:49;;;;;;;;;;;;;;;;;;5114171;27;19979;-87
2022/08/08 04:12:15;;;;;;;;;;;;;;;;;;5144701;27;19923;-87
2022/08/08 04:14:41;;;;;;;;;;;;;;;;;;5146963;27;19923;-87
2022/08/08 04:17:07;;;;;;;;;;;;;;;;;;5145312;27;19933;-85
2022/08/08 04:19:33;;;;;;;;;;;;;;;;;;5147127;27;20036;-88
2022/08/08 04:21:58;;;;;;;;;;;;;;;;;;5113508;27;19955;-86
2022/08/08 04:24:24;;;;;;;;;;;;;;;;;;5140767;27;19988;-84
2022/08/08 04:26:50;;;;;;;;;;;;;;;;;;5139253;27;19930;-87
2022/08/08 04:29:16;;;;;;;;;;;;;;;;;;5141666;27;19958;-87
2022/08/08 04:31:42;;;;;;;;;;;;;;;;;;5140160;27;19931;-87
2022/08/08 04:34:09;;;;;;;;;;;;;;;;;;5119013;27;19930;-85
2022/08/08 04:36:34;;;;;;;;;;;;;;;;;;5137996;27;19920;-83
2022/08/08 04:39:02;;;;;;;;;;;;;;;;;;5117770;27;19923;-85
2022/08/08 04:41:28;;;;;;;;;;;;;;;;;;5117172;27;19923;-85
2022/08/08 04:43:54;;;;;;;;;;;;;;;;;;5135232;27;19931;-85
2022/08/08 04:46:20;;;;;;;;;;;;;;;;;;5135411;27;20366;-85
2022/08/08 04:48:46;;;;;;;;;;;;;;;;;;5138558;27;19924;-85
2022/08/08 04:51:12;;;;;;;;;;;;;;;;;;5125067;27;20389;-82
2022/08/08 04:53:38;;;;;;;;;;;;;;;;;;5140296;27;20378;-79
2022/08/08 04:56:04;;;;;;;;;;;;;;;;;;5121070;27;19927;-81
2022/08/08 04:58:30;;;;;;;;;;;;;;;;;;5135346;27;19923;-81
2022/08/08 05:00:55;;;;;;;;;;;;;;;;;;5145165;27;20416;-84
2022/08/08 05:03:21;;;;;;;;;;;;;;;;;;5117275;27;19981;-83
2022/08/08 05:05:47;;;;;;;;;;;;;;;;;;5142125;27;19936;-83
2022/08/08 05:08:13;;;;;;;;;;;;;;;;;;5139365;27;19923;-82
2022/08/08 05:10:39;;;;;;;;;;;;;;;;;;5136065;27;20316;-83
2022/08/08 05:13:05;;;;;;;;;;;;;;;;;;5134843;27;19923;-82
2022/08/08 05:15:31;;;;;;;;;;;;;;;;;;5136432;27;19985;-82
2022/08/08 05:17:57;;;;;;;;;;;;;;;;;;5139719;27;19971;-82
2022/08/08 05:20:23;;;;;;;;;;;;;;;;;;5132617;27;19975;-83
2022/08/08 05:22:49;;;;;;;;;;;;;;;;;;5137716;27;19923;-82
2022/08/08 05:25:15;;;;;;;;;;;;;;;;;;5141128;27;19927;-83
2022/08/08 05:27:41;;;;;;;;;;;;;;;;;;5138654;27;20290;-83
2022/08/08 05:30:09;;;;;;;;;;;;;;;;;;5118594;27;19931;-82
2022/08/08 05:32:35;;;;;;;;;;;;;;;;;;5142218;27;19919;-82
2022/08/08 05:35:01;;;;;;;;;;;;;;;;;;5137149;27;19923;-81
2022/08/08 05:37:30;;;;;;;;;;;;;;;;;;5120291;27;19937;-87
2022/08/08 05:39:56;;;;;;;;;;;;;;;;;;5108568;27;19927;-86
2022/08/08 05:42:22;;;;;;;;;;;;;;;;;;5111043;27;19947;-89
2022/08/08 05:44:48;;;;;;;;;;;;;;;;;;5139642;27;20392;-88
2022/08/08 05:47:14;;;;;;;;;;;;;;;;;;5124094;27;19923;-91
2022/08/08 05:49:42;;;;;;;;;;;;;;;;;;5141213;27;19931;-88
2022/08/08 05:52:08;;;;;;;;;;;;;;;;;;5141524;27;19923;-82
2022/08/08 05:54:34;;;;;;;;;;;;;;;;;;5128464;28;19923;-90
2022/08/08 05:57:00;;;;;;;;;;;;;;;;;;5115547;28;19946;-87
2022/08/08 05:59:26;;;;;;;;;;;;;;;;;;5150113;27;20018;-87
2022/08/08 06:01:55;;;;;;;;;;;;;;;;;;5125067;27;19930;-82
2022/08/08 06:04:21;;;;;;;;;;;;;;;;;;5141851;27;19976;-82
2022/08/08 06:06:47;;;;;;;;;;;;;;;;;;5140131;27;19947;-81
2022/08/08 06:09:13;;;;;;;;;;;;;;;;;;5149295;27;20924;-80
2022/08/08 06:11:39;;;;;;;;;;;;;;;;;;5127303;27;19968;-80
2022/08/08 06:14:05;;;;;;;;;;;;;;;;;;5152619;27;19927;-82
2022/08/08 06:16:32;;;;;;;;;;;;;;;;;;5153756;27;19938;-81
2022/08/08 06:18:58;;;;;;;;;;;;;;;;;;5154082;27;19976;-80
2022/08/08 06:21:24;;;;;;;;;;;;;;;;;;5151171;27;19927;-78
2022/08/08 06:23:49;;;;;;;;;;;;;;;;;;5127529;27;20022;-80
2022/08/08 06:26:15;;;;;;;;;;;;;;;;;;5155544;27;19923;-81
2022/08/08 06:28:41;;;;;;;;;;;;;;;;;;5139072;27;19931;-80
2022/08/08 06:31:07;;;;;;;;;;;;;;;;;;5129132;27;19934;-81
2022/08/08 06:33:33;;;;;;;;;;;;;;;;;;5117641;27;20404;-80
2022/08/08 06:35:59;;;;;;;;;;;;;;;;;;5144427;27;19930;-81
2022/08/08 06:38:25;;;;;;;;;;;;;;;;;;5136307;27;19930;-81
2022/08/08 06:40:51;;;;;;;;;;;;;;;;;;5137664;27;19930;-81
2022/08/08 06:43:17;;;;;;;;;;;;;;;;;;5145609;27;20297;-81
2022/08/08 06:45:43;;;;;;;;;;;;;;;;;;5156124;27;20373;-81
2022/08/08 06:48:09;;;;;;;;;;;;;;;;;;5147036;27;19931;-86
2022/08/08 06:50:35;;;;;;;;;;;;;;;;;;5150999;27;19923;-78
2022/08/08 06:53:01;;;;;;;;;;;;;;;;;;5130701;27;20010;-83
2022/08/08 06:55:27;;;;;;;;;;;;;;;;;;5135335;27;19928;-82
2022/08/08 06:57:53;;;;;;;;;;;;;;;;;;5152347;27;19927;-80
2022/08/08 07:00:19;;;;;;;;;;;;;;;;;;5148717;27;19927;-81
2022/08/08 07:02:45;;;;;;;;;;;;;;;;;;5136602;27;19923;-82
2022/08/08 07:05:11;;;;;;;;;;;;;;;;;;5141620;27;19958;-82
2022/08/08 07:07:37;;;;;;;;;;;;;;;;;;5152061;27;19931;-81
2022/08/08 07:10:02;;;;;;;;;;;;;;;;;;5147146;27;19923;-82
2022/08/08 07:12:28;;;;;;;;;;;;;;;;;;5150473;27;19927;-82
2022/08/08 07:14:54;;;;;;;;;;;;;;;;;;5128893;27;19926;-85
2022/08/08 07:17:20;;;;;;;;;;;;;;;;;;5147101;27;19923;-84
2022/08/08 07:19:46;;;;;;;;;;;;;;;;;;5138874;27;19999;-83
2022/08/08 07:22:12;;;;;;;;;;;;;;;;;;5150519;27;19923;-82
2022/08/08 07:24:38;;;;;;;;;;;;;;;;;;5149040;27;19923;-82
2022/08/08 07:27:04;;;;;;;;;;;;;;;;;;5115798;27;19930;-81
2022/08/08 07:29:30;;;;;;;;;;;;;;;;;;5125869;27;19919;-82
2022/08/08 07:31:56;;;;;;;;;;;;;;;;;;5135662;27;19968;-82
2022/08/08 07:34:22;;;;;;;;;;;;;;;;;;5124231;27;19928;-81
2022/08/08 07:36:48;;;;;;;;;;;;;;;;;;5123365;27;19994;-78
2022/08/08 07:39:14;;;;;;;;;;;;;;;;;;5142459;27;19926;-84
2022/08/08 07:41:41;;;;;;;;;;;;;;;;;;5148348;27;19927;-83
2022/08/08 07:44:07;;;;;;;;;;;;;;;;;;5134266;27;20017;-83
2022/08/08 07:46:33;;;;;;;;;;;;;;;;;;5150159;27;20011;-83
2022/08/08 07:48:59;;;;;;;;;;;;;;;;;;5137924;27;20365;-83
2022/08/08 07:51:25;;;;;;;;;;;;;;;;;;5140505;27;20342;-83
2022/08/08 07:53:51;;;;;;;;;;;;;;;;;;5148644;27;19977;-76
2022/08/08 07:56:17;;;;;;;;;;;;;;;;;;5152090;27;19927;-86
2022/08/08 07:58:43;;;;;;;;;;;;;;;;;;5146828;27;19968;-83
2022/08/08 08:01:14;;;;;;;;;;;;;;;;;;5147905;27;19923;-80
2022/08/08 08:03:40;;;;;;;;;;;;;;;;;;5145302;27;19923;-85
2022/08/08 08:06:06;;;;;;;;;;;;;;;;;;5145871;27;20000;-85
2022/08/08 08:08:32;;;;;;;;;;;;;;;;;;5148713;27;19976;-87
2022/08/08 08:10:58;;;;;;;;;;;;;;;;;;5154691;27;19929;-90
2022/08/08 08:13:24;;;;;;;;;;;;;;;;;;5145342;27;19923;-86
2022/08/08 08:15:50;;;;;;;;;;;;;;;;;;5140960;27;19930;-88
2022/08/08 08:18:16;;;;;;;;;;;;;;;;;;5127509;27;19923;-87
2022/08/08 08:20:44;;;;;;;;;;;;;;;;;;5153108;27;20322;-87
2022/08/08 08:23:10;;;;;;;;;;;;;;;;;;5150689;27;20341;-86
2022/08/08 08:25:35;;;;;;;;;;;;;;;;;;5152444;27;19927;-85
2022/08/08 08:28:01;;;;;;;;;;;;;;;;;;5151032;27;19919;-85
2022/08/08 08:30:27;;;;;;;;;;;;;;;;;;5152760;27;19938;-82
2022/08/08 08:32:53;;;;;;;;;;;;;;;;;;5149481;27;19934;-87
2022/08/08 08:35:19;;;;;;;;;;;;;;;;;;5136148;27;20014;-87
2022/08/08 08:37:45;;;;;;;;;;;;;;;;;;5149786;27;19923;-86
2022/08/08 08:40:11;;;;;;;;;;;;;;;;;;5121860;27;19927;-87
2022/08/08 08:42:37;;;;;;;;;;;;;;;;;;5135918;27;19928;-86
2022/08/08 08:45:03;;;;;;;;;;;;;;;;;;5147378;27;19923;-86
2022/08/08 08:47:29;;;;;;;;;;;;;;;;;;5128169;27;19924;-82
2022/08/08 08:49:55;;;;;;;;;;;;;;;;;;5144546;27;19930;-87
2022/08/08 08:52:21;;;;;;;;;;;;;;;;;;5147347;27;19927;-86
2022/08/08 08:54:47;;;;;;;;;;;;;;;;;;5133075;27;20195;-86
2022/08/08 08:57:13;;;;;;;;;;;;;;;;;;5140718;27;19924;-86
2022/08/08 08:59:39;;;;;;;;;;;;;;;;;;5137516;27;19930;-86
2022/08/08 09:02:05;;;;;;;;;;;;;;;;;;5147918;27;19923;-91
2022/08/08 09:04:31;;;;;;;;;;;;;;;;;;5146101;27;19929;-80
2022/08/08 09:06:57;;;;;;;;;;;;;;;;;;5128937;27;19931;-93
2022/08/08 09:09:23;;;;;;;;;;;;;;;;;;5135390;27;19923;-93
2022/08/08 09:11:49;;;;;;;;;;;;;;;;;;5124617;27;19923;-92
2022/08/08 09:14:15;;;;;;;;;;;;;;;;;;5143262;27;19923;-92
2022/08/08 09:16:41;;;;;;;;;;;;;;;;;;5143661;27;20005;-90
2022/08/08 09:19:07;;;;;;;;;;;;;;;;;;5125401;27;20041;-89
2022/08/08 09:21:33;;;;;;;;;;;;;;;;;;5115597;27;19928;-81
2022/08/08 09:23:59;;;;;;;;;;;;;;;;;;5140893;27;20010;-91
2022/08/08 09:26:25;;;;;;;;;;;;;;;;;;5140816;27;19924;-94
2022/08/08 09:28:50;;;;;;;;;;;;;;;;;;5148113;27;20027;-95
2022/08/08 09:31:16;;;;;;;;;;;;;;;;;;5120165;27;19924;-91
2022/08/08 09:33:42;;;;;;;;;;;;;;;;;;5144958;27;19932;-76
2022/08/08 09:36:08;;;;;;;;;;;;;;;;;;5143634;27;19923;-95
2022/08/08 09:38:34;;;;;;;;;;;;;;;;;;5099064;28;19923;-80
2022/08/08 09:41:00;;;;;;;;;;;;;;;;;;5140416;27;20067;-86
2022/08/08 09:43:28;;;;;;;;;;;;;;;;;;5144385;27;19927;-96
2022/08/08 09:45:54;;;;;;;;;;;;;;;;;;5125933;27;19923;-88
2022/08/08 09:48:20;;;;;;;;;;;;;;;;;;5113211;27;19923;-84
2022/08/08 09:50:46;;;;;;;;;;;;;;;;;;5126503;27;19928;-82
2022/08/08 09:53:12;;;;;;;;;;;;;;;;;;5116748;27;20004;-82
2022/08/08 09:55:38;;;;;;;;;;;;;;;;;;5115760;27;19999;-80
2022/08/08 09:58:04;;;;;;;;;;;;;;;;;;5120358;27;19923;-80
2022/08/08 10:00:30;;;;;;;;;;;;;;;;;;5151101;27;20010;-85
2022/08/08 10:02:56;;;;;;;;;;;;;;;;;;5146432;27;20385;-80
2022/08/08 10:05:23;;;;;;;;;;;;;;;;;;5127039;27;20398;-79
2022/08/08 10:07:49;;;;;;;;;;;;;;;;;;5150381;27;19930;-80
2022/08/08 10:10:15;;;;;;;;;;;;;;;;;;5147955;27;20372;-79
2022/08/08 10:12:41;;;;;;;;;;;;;;;;;;5155484;27;20397;-78
2022/08/08 10:15:07;;;;;;;;;;;;;;;;;;5130454;27;20040;-79
2022/08/08 10:17:33;;;;;;;;;;;;;;;;;;5146251;27;19927;-80
2022/08/08 10:19:59;;;;;;;;;;;;;;;;;;5141500;27;20359;-79
2022/08/08 10:22:24;;;;;;;;;;;;;;;;;;5122334;27;19927;-81
2022/08/08 10:24:50;;;;;;;;;;;;;;;;;;5120908;27;19923;-80
2022/08/08 10:27:16;;;;;;;;;;;;;;;;;;5148012;27;19968;-77
2022/08/08 10:29:43;;;;;;;;;;;;;;;;;;5142600;27;19931;-80
2022/08/08 10:34:53;;;;;;;;;;;;;;;;;;5132654;27;19941;-84
2022/08/08 10:37:19;;;;;;;;;;;;;;;;;;5136671;27;19924;-83
2022/08/08 10:39:45;;;;;;;;;;;;;;;;;;5099121;27;19969;-78
2022/08/08 10:42:11;;;;;;;;;;;;;;;;;;5117642;27;20263;-87
2022/08/08 10:44:37;;;;;;;;;;;;;;;;;;5113359;27;19934;-88
2022/08/08 10:47:03;;;;;;;;;;;;;;;;;;5112241;27;19966;-87
2022/08/08 10:49:29;;;;;;;;;;;;;;;;;;5128472;27;19962;-90
2022/08/08 10:51:55;;;;;;;;;;;;;;;;;;5119806;27;19950;-81
2022/08/08 10:54:21;;;;;;;;;;;;;;;;;;5115529;27;19949;-85
2022/08/08 10:56:47;;;;;;;;;;;;;;;;;;5113688;27;19927;-82
2022/08/08 10:59:13;;;;;;;;;;;;;;;;;;5131176;27;19930;-83
2022/08/08 11:01:39;;;;;;;;;;;;;;;;;;5132045;27;19923;-80
2022/08/08 11:04:05;;;;;;;;;;;;;;;;;;5107530;27;19927;-81
2022/08/08 11:06:31;;;;;;;;;;;;;;;;;;5142194;27;19938;-79
2022/08/08 11:08:57;;;;;;;;;;;;;;;;;;5140561;27;20403;-75
2022/08/08 11:11:23;;;;;;;;;;;;;;;;;;5131749;27;19923;-76
2022/08/08 11:13:49;;;;;;;;;;;;;;;;;;5148966;27;20293;-78
2022/08/08 11:16:14;;;;;;;;;;;;;;;;;;5117060;27;19927;-76
2022/08/08 11:18:41;;;;;;;;;;;;;;;;;;5118557;27;19923;-76
2022/08/08 11:21:06;;;;;;;;;;;;;;;;;;5149352;27;19938;-80
2022/08/08 11:23:33;;;;;;;;;;;;;;;;;;5133403;27;19923;-80
2022/08/08 11:25:59;;;;;;;;;;;;;;;;;;5129145;27;19923;-80
2022/08/08 11:28:25;;;;;;;;;;;;;;;;;;5115386;27;19930;-82
2022/08/08 11:30:51;;;;;;;;;;;;;;;;;;5114112;27;19924;-80
2022/08/08 11:33:18;;;;;;;;;;;;;;;;;;5106279;27;19934;-79
2022/08/08 11:35:43;;;;;;;;;;;;;;;;;;5125095;27;19931;-79
2022/08/08 11:38:09;;;;;;;;;;;;;;;;;;5121878;27;20388;-78
2022/08/08 11:40:35;;;;;;;;;;;;;;;;;;5116527;27;19923;-77
2022/08/08 11:43:01;;;;;;;;;;;;;;;;;;5136082;27;19924;-77
2022/08/08 11:45:27;;;;;;;;;;;;;;;;;;5121335;27;19982;-83
2022/08/08 11:47:53;;;;;;;;;;;;;;;;;;5133138;27;19953;-77
2022/08/08 11:50:20;;;;;;;;;;;;;;;;;;5153485;27;20009;-77
2022/08/08 11:52:46;;;;;;;;;;;;;;;;;;5144352;27;19923;-77
2022/08/08 11:55:12;;;;;;;;;;;;;;;;;;5152767;27;20278;-76
2022/08/08 11:57:38;;;;;;;;;;;;;;;;;;5141463;27;19927;-76
2022/08/08 12:00:05;;;;;;;;;;;;;;;;;;5144370;27;19931;-76
2022/08/08 12:02:31;;;;;;;;;;;;;;;;;;5125913;27;19930;-76
2022/08/08 12:04:57;;;;;;;;;;;;;;;;;;5148334;27;19923;-76
2022/08/08 12:07:24;;;;;;;;;;;;;;;;;;5144102;27;19931;-75
2022/08/08 12:09:53;;;;;;;;;;;;;;;;;;5116144;27;20374;-77
2022/08/08 12:12:19;;;;;;;;;;;;;;;;;;5107192;27;19992;-76
2022/08/08 12:14:45;;;;;;;;;;;;;;;;;;5143393;27;19963;-76
2022/08/08 12:17:11;;;;;;;;;;;;;;;;;;5137961;27;20389;-83
2022/08/08 12:19:37;;;;;;;;;;;;;;;;;;5117839;27;19923;-75
2022/08/08 12:22:03;;;;;;;;;;;;;;;;;;5108341;27;19927;-82
2022/08/08 12:24:29;;;;;;;;;;;;;;;;;;5114938;27;19931;-77
2022/08/08 12:26:54;;;;;;;;;;;;;;;;;;5115846;27;19924;-77
2022/08/08 12:29:21;;;;;;;;;;;;;;;;;;5146901;27;19930;-80
2022/08/08 12:31:47;;;;;;;;;;;;;;;;;;5129628;27;19937;-77
2022/08/08 12:34:13;;;;;;;;;;;;;;;;;;5104864;27;19924;-76
2022/08/08 12:36:39;;;;;;;;;;;;;;;;;;5120112;27;20293;-80
2022/08/08 12:39:05;;;;;;;;;;;;;;;;;;5125132;27;19981;-79
2022/08/08 12:41:34;;;;;;;;;;;;;;;;;;5121950;27;19931;-78
2022/08/08 12:44:00;;;;;;;;;;;;;;;;;;5113831;27;20350;-78
2022/08/08 12:46:26;;;;;;;;;;;;;;;;;;5121977;27;19930;-78
2022/08/08 12:48:52;;;;;;;;;;;;;;;;;;5151018;27;19930;-78
2022/08/08 12:51:17;;;;;;;;;;;;;;;;;;5144551;27;19996;-79
2022/08/08 12:53:43;;;;;;;;;;;;;;;;;;5112044;27;19938;-81
2022/08/08 12:56:09;;;;;;;;;;;;;;;;;;5125687;27;19931;-80
2022/08/08 12:58:35;;;;;;;;;;;;;;;;;;5108249;27;19923;-78
2022/08/08 13:01:01;;;;;;;;;;;;;;;;;;5120247;27;19931;-76
2022/08/08 13:03:27;;;;;;;;;;;;;;;;;;5115834;27;19931;-77
2022/08/08 13:05:53;;;;;;;;;;;;;;;;;;5116162;27;20428;-77
2022/08/08 13:08:20;;;;;;;;;;;;;;;;;;5118606;27;20019;-79
2022/08/08 13:10:46;;;;;;;;;;;;;;;;;;5108495;27;19931;-80
2022/08/08 13:13:12;;;;;;;;;;;;;;;;;;5101233;27;19972;-79
2022/08/08 13:15:38;;;;;;;;;;;;;;;;;;5127635;27;19924;-78
2022/08/08 13:18:04;;;;;;;;;;;;;;;;;;5102185;28;20030;-78
2022/08/08 13:20:30;;;;;;;;;;;;;;;;;;5111483;28;20294;-78
2022/08/08 13:22:56;;;;;;;;;;;;;;;;;;5119618;27;20417;-79
2022/08/08 13:25:22;;;;;;;;;;;;;;;;;;5125021;27;19923;-78
2022/08/08 13:27:48;;;;;;;;;;;;;;;;;;5122445;27;19934;-80
2022/08/08 13:30:14;;;;;;;;;;;;;;;;;;5124048;27;19949;-79
2022/08/08 13:32:40;;;;;;;;;;;;;;;;;;5125385;27;19984;-80
2022/08/08 13:35:06;;;;;;;;;;;;;;;;;;5122916;27;19927;-79
2022/08/08 13:37:32;;;;;;;;;;;;;;;;;;5130506;27;19923;-79
2022/08/08 13:39:58;;;;;;;;;;;;;;;;;;5119397;27;20021;-78
2022/08/08 13:42:24;;;;;;;;;;;;;;;;;;5133171;27;20019;-78
2022/08/08 13:44:49;;;;;;;;;;;;;;;;;;5128343;27;20010;-79
2022/08/08 13:47:16;;;;;;;;;;;;;;;;;;5124443;27;19924;-79
2022/08/08 13:49:42;;;;;;;;;;;;;;;;;;5121284;27;19930;-79
2022/08/08 13:52:08;;;;;;;;;;;;;;;;;;5136605;27;19927;-79
2022/08/08 13:54:34;;;;;;;;;;;;;;;;;;5137349;27;19930;-79
2022/08/08 13:57:00;;;;;;;;;;;;;;;;;;5119038;27;19924;-78
2022/08/08 13:59:26;;;;;;;;;;;;;;;;;;5134773;27;19927;-78
2022/08/08 14:01:52;;;;;;;;;;;;;;;;;;5138151;27;19931;-78
2022/08/08 14:04:18;;;;;;;;;;;;;;;;;;5126662;27;19981;-79
2022/08/08 14:06:44;;;;;;;;;;;;;;;;;;5118431;27;19931;-82
2022/08/08 14:09:10;;;;;;;;;;;;;;;;;;5118129;27;20370;-82
2022/08/08 14:11:36;;;;;;;;;;;;;;;;;;5131582;27;19923;-81
2022/08/08 14:14:02;;;;;;;;;;;;;;;;;;5132013;27;19928;-81
2022/08/08 14:16:28;;;;;;;;;;;;;;;;;;5132381;27;19927;-81
2022/08/08 14:18:54;;;;;;;;;;;;;;;;;;5140759;27;19927;-81
2022/08/08 14:21:20;;;;;;;;;;;;;;;;;;5132737;27;19962;-82
2022/08/08 14:23:47;;;;;;;;;;;;;;;;;;5124398;27;19977;-81
2022/08/08 14:26:13;;;;;;;;;;;;;;;;;;5125412;27;20006;-81
2022/08/08 14:28:39;;;;;;;;;;;;;;;;;;5115810;27;20010;-83
2022/08/08 14:31:05;;;;;;;;;;;;;;;;;;5134111;27;19923;-82
2022/08/08 14:33:31;;;;;;;;;;;;;;;;;;5117771;27;19923;-84
2022/08/08 14:35:57;;;;;;;;;;;;;;;;;;5133163;27;19927;-81
2022/08/08 14:38:22;;;;;;;;;;;;;;;;;;5142860;27;20396;-79
2022/08/08 14:40:48;;;;;;;;;;;;;;;;;;5124058;27;20378;-78
2022/08/08 14:43:14;;;;;;;;;;;;;;;;;;5131287;27;20409;-78
2022/08/08 14:45:40;;;;;;;;;;;;;;;;;;5139667;27;20382;-78
2022/08/08 14:48:09;;;;;;;;;;;;;;;;;;5128789;27;19927;-79
2022/08/08 14:50:35;;;;;;;;;;;;;;;;;;5129479;27;19930;-78
2022/08/08 14:53:02;;;;;;;;;;;;;;;;;;5124878;27;19923;-78
2022/08/08 14:55:28;;;;;;;;;;;;;;;;;;5136247;27;20402;-78
2022/08/08 14:57:54;;;;;;;;;;;;;;;;;;5135291;27;19927;-78
2022/08/08 15:00:20;;;;;;;;;;;;;;;;;;5125578;27;19923;-81
2022/08/08 15:02:46;;;;;;;;;;;;;;;;;;5136707;27;19929;-80
2022/08/08 15:05:12;;;;;;;;;;;;;;;;;;5129213;27;19924;-75
2022/08/08 15:07:38;;;;;;;;;;;;;;;;;;5140698;27;20014;-75
2022/08/08 15:10:04;;;;;;;;;;;;;;;;;;5117026;27;20340;-77
2022/08/08 15:12:30;;;;;;;;;;;;;;;;;;5133661;27;19923;-77
2022/08/08 15:14:56;;;;;;;;;;;;;;;;;;5153436;27;19958;-74
2022/08/08 15:17:22;;;;;;;;;;;;;;;;;;5152727;27;19931;-71
2022/08/08 15:19:48;;;;;;;;;;;;;;;;;;5139861;27;19928;-76
2022/08/08 15:22:14;;;;;;;;;;;;;;;;;;5109675;27;19972;-76
2022/08/08 15:24:40;;;;;;;;;;;;;;;;;;5140727;27;19930;-70
2022/08/08 15:27:06;;;;;;;;;;;;;;;;;;5149191;27;19934;-72
2022/08/08 15:29:32;;;;;;;;;;;;;;;;;;5118555;27;19923;-72
2022/08/08 15:31:58;;;;;;;;;;;;;;;;;;5147492;27;19979;-72
2022/08/08 15:34:24;;;;;;;;;;;;;;;;;;5108148;27;19931;-77
2022/08/08 15:36:51;;;;;;;;;;;;;;;;;;5125757;27;19923;-75
2022/08/08 15:39:17;;;;;;;;;;;;;;;;;;5102613;27;20015;-75
2022/08/08 15:41:43;;;;;;;;;;;;;;;;;;5151539;27;19974;-74
2022/08/08 15:44:09;;;;;;;;;;;;;;;;;;5146349;27;19931;-74
2022/08/08 15:46:35;;;;;;;;;;;;;;;;;;5130222;27;19924;-72
2022/08/08 15:49:01;;;;;;;;;;;;;;;;;;5139142;27;19923;-74
2022/08/08 15:51:27;;;;;;;;;;;;;;;;;;5140698;27;20280;-73
2022/08/08 15:53:53;;;;;;;;;;;;;;;;;;5140151;27;20342;-75
2022/08/08 15:56:19;;;;;;;;;;;;;;;;;;5118688;27;20342;-74
2022/08/08 15:58:45;;;;;;;;;;;;;;;;;;5127172;27;19954;-77
2022/08/08 16:01:11;;;;;;;;;;;;;;;;;;5137801;27;19923;-72
2022/08/08 16:03:37;;;;;;;;;;;;;;;;;;5138924;27;19939;-74
2022/08/08 16:06:02;;;;;;;;;;;;;;;;;;5119147;27;19923;-70
2022/08/08 16:08:28;;;;;;;;;;;;;;;;;;5143298;27;20312;-72
2022/08/08 16:10:54;;;;;;;;;;;;;;;;;;5118641;27;20358;-71
2022/08/08 16:13:20;;;;;;;;;;;;;;;;;;5151053;27;20357;-72
2022/08/08 16:15:47;;;;;;;;;;;;;;;;;;5138040;27;19939;-73
2022/08/08 16:18:13;;;;;;;;;;;;;;;;;;5136892;27;19927;-74
2022/08/08 16:20:39;;;;;;;;;;;;;;;;;;5146599;27;19926;-72
2022/08/08 16:23:05;;;;;;;;;;;;;;;;;;5137437;27;20030;-72
2022/08/08 16:25:31;;;;;;;;;;;;;;;;;;5135758;27;20402;-73
2022/08/08 16:27:56;;;;;;;;;;;;;;;;;;5128411;27;20331;-71
2022/08/08 16:30:22;;;;;;;;;;;;;;;;;;5134684;27;19924;-70
2022/08/08 16:32:48;;;;;;;;;;;;;;;;;;5115875;27;19923;-72
2022/08/08 16:35:14;;;;;;;;;;;;;;;;;;5134152;27;19938;-71
2022/08/08 16:37:41;;;;;;;;;;;;;;;;;;5134982;27;20309;-72
2022/08/08 16:40:07;;;;;;;;;;;;;;;;;;5143244;27;19923;-73